Time;durP1;ratioP1;P1;durP2;ratioP2;P2;SDS_P1;SDS_P2;PMS_P1;PMS_P2;Temp;Humidity;BMP_temperature;BMP_pressure;BME280_temperature;BME280_humidity;BME280_pressure;Samples;Min_cycle;Max_cycle;Signal;HPM_P1;HPM_P2
2021/06/03 00:00:32;;;;;;;;;;;;;;;6.86;82.62;96264.30;1685896;85;20405;-62
2021/06/03 00:03:01;;;;;;;;;;;;;;;6.90;82.17;96263.02;1685517;85;20116;-64
2021/06/03 00:05:30;;;;;;;;;;;;;;;6.96;81.83;96271.80;1685848;85;20116;-62
2021/06/03 00:07:57;;;;;;;;;;;;;;;6.94;82.06;96271.34;1686023;85;20120;-62
2021/06/03 00:10:26;;;;;;;;;;;;;;;6.98;81.72;96276.59;1685736;85;20554;-62
2021/06/03 00:12:52;;;;;;;;;;;;;;;6.85;81.74;96272.58;1686008;85;20398;-61
2021/06/03 00:15:19;;;;;;;;;;;;;;;6.73;81.51;96265.96;1685514;85;20452;-62
2021/06/03 00:17:46;;;;;;;;;;;;;;;6.58;82.27;96265.41;1685796;85;20450;-62
2021/06/03 00:20:15;;;;;;;;;;;;;;;6.59;82.28;96275.02;1685886;85;20112;-62
2021/06/03 00:22:42;;;;;;;;;;;;;;;6.59;81.80;96275.45;1685908;85;20132;-62
2021/06/03 00:25:09;;;;;;;;;;;;;;;6.56;82.03;96280.25;1685746;85;20397;-62
2021/06/03 00:27:36;;;;;;;;;;;;;;;6.55;81.65;96280.22;1685647;85;20115;-63
2021/06/03 00:30:07;;;;;;;;;;;;;;;6.59;81.96;96277.64;1685878;85;20124;-62
2021/06/03 00:32:34;;;;;;;;;;;;;;;6.66;81.79;96279.45;1685736;85;20445;-62
2021/06/03 00:35:01;;;;;;;;;;;;;;;6.63;81.72;96279.44;1666240;85;20108;-62
2021/06/03 00:37:27;;;;;;;;;;;;;;;6.62;81.65;96285.97;1685778;85;20128;-62
2021/06/03 00:39:53;;;;;;;;;;;;;;;6.48;81.70;96285.87;1685754;85;20143;-62
2021/06/03 00:42:20;;;;;;;;;;;;;;;6.36;82.24;96286.63;1688574;85;20416;-62
2021/06/03 00:44:46;;;;;;;;;;;;;;;6.26;82.55;96284.36;1698308;84;20111;-61
2021/06/03 00:47:12;;;;;;;;;;;;;;;6.25;82.93;96285.67;1698367;84;20115;-62
2021/06/03 00:49:39;;;;;;;;;;;;;;;6.20;83.26;96284.72;1698573;84;20139;-62
2021/06/03 00:52:06;;;;;;;;;;;;;;;6.12;83.61;96292.50;1698304;85;20107;-62
2021/06/03 00:54:33;;;;;;;;;;;;;;;6.08;83.53;96286.81;1698929;85;20127;-62
2021/06/03 00:56:59;;;;;;;;;;;;;;;6.04;83.37;96282.39;1699839;84;20129;-62
2021/06/03 00:59:26;;;;;;;;;;;;;;;6.06;82.72;96284.16;1710485;84;20102;-63
2021/06/03 01:01:52;;;;;;;;;;;;;;;6.03;82.39;96290.69;1710956;84;20117;-63
2021/06/03 01:04:21;;;;;;;;;;;;;;;5.92;83.40;96297.53;1710856;84;20121;-62
2021/06/03 01:06:48;;;;;;;;;;;;;;;5.95;82.88;96296.73;1710828;84;20098;-63
2021/06/03 01:09:30;;;;;;;;;;;;;;;5.91;83.13;96298.38;1710861;84;20101;-62
2021/06/03 01:12:04;;;;;;;;;;;;;;;5.94;82.75;96292.33;1710922;84;20110;-62
2021/06/03 01:14:35;;;;;;;;;;;;;;;6.05;82.49;96288.09;1710624;84;20102;-62
2021/06/03 01:17:01;;;;;;;;;;;;;;;6.07;82.67;96295.52;1710393;84;20106;-62
2021/06/03 01:19:34;;;;;;;;;;;;;;;6.03;82.68;96291.13;1710843;84;20114;-61
2021/06/03 01:22:21;;;;;;;;;;;;;;;5.96;83.14;96298.47;1710880;84;20117;-62
2021/06/03 01:24:57;;;;;;;;;;;;;;;5.99;83.12;96288.02;1710978;84;20462;-62
2021/06/03 01:27:27;;;;;;;;;;;;;;;6.08;82.68;96297.73;1686960;84;20387;-62
2021/06/03 01:30:19;;;;;;;;;;;;;;;6.08;82.26;96295.98;1710871;84;20137;-62
2021/06/03 01:32:58;;;;;;;;;;;;;;;5.99;82.29;96306.35;1711036;84;20166;-63
2021/06/03 01:35:29;;;;;;;;;;;;;;;6.04;82.48;96298.98;1710673;84;20411;-63
2021/06/03 01:37:56;;;;;;;;;;;;;;;6.06;81.98;96301.62;1711132;84;20109;-62
2021/06/03 01:40:24;;;;;;;;;;;;;;;6.09;81.69;96294.23;1710796;84;20126;-62
2021/06/03 01:42:51;;;;;;;;;;;;;;;6.00;81.35;96295.91;1709398;84;20102;-63
2021/06/03 01:45:19;;;;;;;;;;;;;;;5.96;81.32;96299.34;1707547;84;20121;-62
2021/06/03 01:47:46;;;;;;;;;;;;;;;5.90;81.14;96301.00;1707766;84;20102;-62
2021/06/03 01:50:14;;;;;;;;;;;;;;;5.78;81.07;96299.12;1707402;84;20110;-61
2021/06/03 01:52:42;;;;;;;;;;;;;;;5.77;81.35;96302.17;1707833;84;20133;-62
2021/06/03 01:55:10;;;;;;;;;;;;;;;5.72;81.34;96296.00;1706293;84;20137;-62
2021/06/03 01:57:39;;;;;;;;;;;;;;;5.61;81.72;96297.16;1693189;85;20151;-62
2021/06/03 02:00:10;;;;;;;;;;;;;;;5.57;82.73;96299.75;1692273;85;20139;-62
2021/06/03 02:02:38;;;;;;;;;;;;;;;5.49;82.88;96297.02;1691870;85;20166;-62
2021/06/03 02:05:07;;;;;;;;;;;;;;;5.50;82.77;96298.79;1692931;85;20428;-62
2021/06/03 02:07:34;;;;;;;;;;;;;;;5.47;82.99;96303.99;1693318;85;20134;-62
2021/06/03 02:10:01;;;;;;;;;;;;;;;5.43;83.10;96304.80;1693306;84;20448;-63
2021/06/03 02:12:32;;;;;;;;;;;;;;;5.42;82.88;96303.05;1693264;84;20150;-63
2021/06/03 02:15:04;;;;;;;;;;;;;;;5.41;82.52;96299.53;1693237;84;20135;-63
2021/06/03 02:17:34;;;;;;;;;;;;;;;5.34;81.97;96295.11;1693267;84;20146;-63
2021/06/03 02:20:15;;;;;;;;;;;;;;;5.32;82.48;96307.29;1693048;85;20143;-62
2021/06/03 02:22:44;;;;;;;;;;;;;;;5.31;82.84;96304.64;1693210;84;20436;-62
2021/06/03 02:25:12;;;;;;;;;;;;;;;5.24;82.66;96302.39;1692827;85;20123;-62
2021/06/03 02:27:39;;;;;;;;;;;;;;;5.14;83.42;96304.00;1693395;85;20155;-62
2021/06/03 02:30:08;;;;;;;;;;;;;;;5.07;83.16;96309.12;1692978;84;20134;-62
2021/06/03 02:32:36;;;;;;;;;;;;;;;5.04;82.72;96307.75;1667633;85;20139;-62
2021/06/03 02:35:09;;;;;;;;;;;;;;;5.05;82.71;96310.83;1693428;84;20139;-62
2021/06/03 02:37:38;;;;;;;;;;;;;;;5.12;82.92;96310.06;1693041;85;20167;-62
2021/06/03 02:40:10;;;;;;;;;;;;;;;5.12;83.76;96311.37;1693228;84;20439;-62
2021/06/03 02:42:39;;;;;;;;;;;;;;;5.18;83.42;96317.55;1692977;84;20115;-62
2021/06/03 02:45:09;;;;;;;;;;;;;;;5.19;83.29;96323.25;1693272;85;20119;-62
2021/06/03 02:47:39;;;;;;;;;;;;;;;5.18;83.49;96320.60;1693634;85;20414;-62
2021/06/03 02:50:09;;;;;;;;;;;;;;;5.16;83.07;96325.80;1693472;85;20469;-62
2021/06/03 02:52:37;;;;;;;;;;;;;;;5.17;82.92;96326.27;1693537;85;20428;-62
2021/06/03 02:55:07;;;;;;;;;;;;;;;5.21;83.01;96322.82;1693547;85;20424;-63
2021/06/03 02:57:33;;;;;;;;;;;;;;;5.26;82.85;96324.19;1693848;85;20109;-62
2021/06/03 03:00:01;;;;;;;;;;;;;;;5.28;82.58;96336.88;1693548;84;20121;-63
2021/06/03 03:02:27;;;;;;;;;;;;;;;5.25;82.40;96331.61;1693851;85;20126;-62
2021/06/03 03:04:54;;;;;;;;;;;;;;;5.21;83.09;96336.33;1693484;85;20150;-62
2021/06/03 03:07:20;;;;;;;;;;;;;;;5.19;83.00;96336.33;1693737;85;20161;-62
2021/06/03 03:09:47;;;;;;;;;;;;;;;5.28;83.17;96338.62;1693737;85;20109;-62
2021/06/03 03:12:14;;;;;;;;;;;;;;;5.36;83.36;96348.75;1693470;85;20102;-62
2021/06/03 03:14:41;;;;;;;;;;;;;;;5.51;82.81;96341.10;1693420;85;20118;-62
2021/06/03 03:17:07;;;;;;;;;;;;;;;5.58;82.13;96345.56;1694036;84;20138;-62
2021/06/03 03:19:35;;;;;;;;;;;;;;;5.57;82.15;96349.49;1693289;84;20102;-63
2021/06/03 03:22:03;;;;;;;;;;;;;;;5.50;82.46;96345.91;1693745;85;20106;-63
2021/06/03 03:24:30;;;;;;;;;;;;;;;5.46;83.10;96350.64;1693696;84;20463;-62
2021/06/03 03:26:57;;;;;;;;;;;;;;;5.43;83.78;96351.47;1693636;85;20103;-62
2021/06/03 03:29:24;;;;;;;;;;;;;;;5.51;83.84;96350.70;1693717;85;20106;-63
2021/06/03 03:31:50;;;;;;;;;;;;;;;5.55;83.65;96352.52;1693722;85;20171;-62
2021/06/03 03:34:17;;;;;;;;;;;;;;;5.50;83.80;96353.75;1693833;84;20415;-62
2021/06/03 03:36:45;;;;;;;;;;;;;;;5.51;84.13;96355.50;1693420;85;20125;-63
2021/06/03 03:39:12;;;;;;;;;;;;;;;5.53;84.71;96351.17;1693998;85;20106;-62
2021/06/03 03:41:39;;;;;;;;;;;;;;;5.66;84.71;96356.56;1693572;85;20093;-61
2021/06/03 03:44:06;;;;;;;;;;;;;;;5.74;84.74;96358.41;1697893;84;20095;-62
2021/06/03 03:46:33;;;;;;;;;;;;;;;5.82;84.65;96363.33;1700515;84;20158;-62
2021/06/03 03:49:02;;;;;;;;;;;;;;;5.90;84.41;96365.17;1700162;84;20131;-62
2021/06/03 03:51:28;;;;;;;;;;;;;;;5.95;84.18;96363.52;1700184;84;20118;-62
2021/06/03 03:53:57;;;;;;;;;;;;;;;5.96;83.80;96363.52;1700455;84;20114;-62
2021/06/03 03:56:23;;;;;;;;;;;;;;;5.97;83.65;96362.67;1695975;84;20131;-62
2021/06/03 03:58:50;;;;;;;;;;;;;;;5.99;83.62;96363.55;1693109;85;20163;-62
2021/06/03 04:01:17;;;;;;;;;;;;;;;5.98;83.62;96362.23;1693045;85;20139;-63
2021/06/03 04:03:45;;;;;;;;;;;;;;;5.99;83.45;96361.36;1693332;85;20123;-62
2021/06/03 04:06:13;;;;;;;;;;;;;;;5.97;83.28;96362.67;1693565;85;20139;-62
2021/06/03 04:08:40;;;;;;;;;;;;;;;5.95;82.99;96364.39;1692978;85;20154;-62
2021/06/03 04:11:07;;;;;;;;;;;;;;;5.95;83.19;96364.83;1693793;85;20127;-62
2021/06/03 04:13:35;;;;;;;;;;;;;;;5.96;83.52;96362.20;1693138;85;20134;-62
2021/06/03 04:16:04;;;;;;;;;;;;;;;5.99;83.85;96360.05;1692660;85;20127;-62
2021/06/03 04:18:31;;;;;;;;;;;;;;;6.04;83.99;96370.15;1693616;85;20179;-62
2021/06/03 04:20:59;;;;;;;;;;;;;;;6.13;84.53;96371.58;1693765;85;20200;-61
2021/06/03 04:23:26;;;;;;;;;;;;;;;6.20;84.63;96376.03;1693398;85;20135;-62
2021/06/03 04:25:52;;;;;;;;;;;;;;;6.26;84.43;96376.52;1693691;85;20179;-62
2021/06/03 04:28:19;;;;;;;;;;;;;;;6.34;85.12;96380.09;1693649;85;20138;-62
2021/06/03 04:30:45;;;;;;;;;;;;;;;6.40;85.14;96365.75;1693369;85;20135;-62
2021/06/03 04:33:14;;;;;;;;;;;;;;;6.50;85.29;96370.63;1693513;85;20123;-62
2021/06/03 04:35:40;;;;;;;;;;;;;;;6.66;84.88;96362.05;1693644;85;20134;-62
2021/06/03 04:38:07;;;;;;;;;;;;;;;6.90;85.02;96367.05;1693598;85;20155;-62
2021/06/03 04:40:34;;;;;;;;;;;;;;;7.14;84.33;96366.37;1693669;85;20183;-63
2021/06/03 04:43:01;;;;;;;;;;;;;;;7.38;83.89;96369.58;1693331;84;20179;-63
2021/06/03 04:45:28;;;;;;;;;;;;;;;7.64;83.18;96369.75;1665544;85;20139;-62
2021/06/03 04:47:54;;;;;;;;;;;;;;;7.88;82.69;96362.41;1691309;85;20139;-62
2021/06/03 04:50:22;;;;;;;;;;;;;;;8.11;81.48;96361.17;1691429;84;20130;-62
2021/06/03 04:52:49;;;;;;;;;;;;;;;8.27;79.92;96359.93;1690665;84;20409;-67
2021/06/03 04:55:21;;;;;;;;;;;;;;;8.51;80.63;96354.73;1682912;84;20423;-64
2021/06/03 04:57:49;;;;;;;;;;;;;;;8.78;81.20;96354.34;1708783;84;20138;-64
2021/06/03 05:00:24;;;;;;;;;;;;;;;9.03;80.96;96356.53;1708732;84;20419;-62
2021/06/03 05:02:51;;;;;;;;;;;;;;;9.25;80.65;96354.77;1708758;84;20412;-67
2021/06/03 05:05:18;;;;;;;;;;;;;;;9.47;80.27;96357.77;1708781;84;20424;-63
2021/06/03 05:07:46;;;;;;;;;;;;;;;9.66;79.94;96356.44;1708813;84;20133;-62
2021/06/03 05:10:15;;;;;;;;;;;;;;;9.87;79.89;96355.48;1708498;84;20118;-60
2021/06/03 05:12:42;;;;;;;;;;;;;;;10.01;78.66;96354.12;1708699;84;20159;-62
2021/06/03 05:15:12;;;;;;;;;;;;;;;10.14;77.97;96351.41;1708637;84;20170;-64
2021/06/03 05:17:38;;;;;;;;;;;;;;;10.25;78.04;96354.44;1682736;84;20126;-66
2021/06/03 05:20:08;;;;;;;;;;;;;;;10.37;77.51;96351.31;1708413;84;20123;-62
2021/06/03 05:22:35;;;;;;;;;;;;;;;10.48;77.33;96356.55;1708140;84;20154;-63
2021/06/03 05:25:08;;;;;;;;;;;;;;;10.58;77.16;96351.66;1708742;84;20435;-62
2021/06/03 05:27:34;;;;;;;;;;;;;;;10.73;76.79;96353.73;1708266;84;20110;-62
2021/06/03 05:30:01;;;;;;;;;;;;;;;10.79;75.45;96348.42;1708534;84;20175;-63
2021/06/03 05:32:27;;;;;;;;;;;;;;;10.94;76.18;96350.08;1708680;84;20436;-63
2021/06/03 05:34:53;;;;;;;;;;;;;;;11.05;75.98;96345.13;1708730;84;20126;-65
2021/06/03 05:37:19;;;;;;;;;;;;;;;11.18;75.79;96348.53;1708710;84;20495;-63
2021/06/03 05:39:45;;;;;;;;;;;;;;;11.35;75.67;96351.48;1708598;84;20167;-62
2021/06/03 05:42:12;;;;;;;;;;;;;;;11.47;75.37;96360.16;1708622;84;20162;-64
2021/06/03 05:44:38;;;;;;;;;;;;;;;11.59;74.46;96354.30;1705148;84;20139;-63
2021/06/03 05:47:05;;;;;;;;;;;;;;;11.68;74.42;96355.09;1703281;84;20159;-65
2021/06/03 05:49:31;;;;;;;;;;;;;;;11.81;73.93;96355.83;1703297;84;20139;-67
2021/06/03 05:52:02;;;;;;;;;;;;;;;11.89;73.08;96360.64;1703526;84;20158;-65
2021/06/03 05:54:30;;;;;;;;;;;;;;;12.01;72.71;96360.05;1703362;84;20412;-65
2021/06/03 05:56:56;;;;;;;;;;;;;;;12.15;73.10;96351.97;1702064;84;20127;-65
2021/06/03 05:59:23;;;;;;;;;;;;;;;12.31;73.11;96348.20;1702192;84;20138;-64
2021/06/03 06:01:50;;;;;;;;;;;;;;;12.49;72.44;96347.08;1701838;84;20433;-65
2021/06/03 06:06:51;;;;;;;;;;;;;;;12.74;71.92;96346.27;1701928;84;20145;-66
2021/06/03 06:09:18;;;;;;;;;;;;;;;12.90;71.66;96350.87;1701934;84;20162;-64
2021/06/03 06:11:45;;;;;;;;;;;;;;;13.01;71.61;96340.14;1701731;84;20194;-65
2021/06/03 06:14:12;;;;;;;;;;;;;;;13.13;71.44;96340.81;1710642;82;20172;-64
2021/06/03 06:16:39;;;;;;;;;;;;;;;13.26;71.40;96340.15;1714625;82;20180;-65
2021/06/03 06:19:07;;;;;;;;;;;;;;;13.40;71.16;96339.92;1698797;82;20122;-64
2021/06/03 06:21:34;;;;;;;;;;;;;;;13.54;70.02;96340.56;1715395;84;20137;-62
2021/06/03 06:24:01;;;;;;;;;;;;;;;13.64;69.29;96339.95;1715186;84;20184;-65
2021/06/03 06:26:28;;;;;;;;;;;;;;;13.76;69.44;96342.83;1715376;84;20153;-65
2021/06/03 06:28:55;;;;;;;;;;;;;;;13.87;68.50;96334.20;1715163;84;20130;-64
2021/06/03 06:31:23;;;;;;;;;;;;;;;13.97;67.61;96335.77;1715566;84;20126;-64
2021/06/03 06:33:49;;;;;;;;;;;;;;;14.12;66.83;96341.21;1715595;84;20100;-63
2021/06/03 06:36:16;;;;;;;;;;;;;;;14.26;66.21;96337.83;1715419;84;20097;-61
2021/06/03 06:38:43;;;;;;;;;;;;;;;14.39;63.74;96333.55;1715645;84;20114;-62
2021/06/03 06:41:11;;;;;;;;;;;;;;;14.53;64.90;96335.92;1715671;84;20427;-62
2021/06/03 06:43:37;;;;;;;;;;;;;;;14.65;64.12;96328.58;1715788;83;20098;-63
2021/06/03 06:46:05;;;;;;;;;;;;;;;14.80;63.05;96332.67;1720821;83;20133;-63
2021/06/03 06:48:35;;;;;;;;;;;;;;;14.82;57.32;96324.68;1721234;83;20109;-66
2021/06/03 06:51:02;;;;;;;;;;;;;;;14.95;58.70;96331.44;1720867;83;20133;-66
2021/06/03 06:53:28;;;;;;;;;;;;;;;15.06;59.26;96332.50;1721176;83;20094;-65
2021/06/03 06:55:55;;;;;;;;;;;;;;;15.17;54.61;96333.13;1717298;83;20122;-63
2021/06/03 06:58:21;;;;;;;;;;;;;;;15.30;54.96;96339.88;1711451;84;20118;-63
2021/06/03 07:00:49;;;;;;;;;;;;;;;15.39;54.81;96340.08;1711699;84;20122;-64
2021/06/03 07:03:16;;;;;;;;;;;;;;;15.53;57.25;96340.61;1711703;84;20415;-65
2021/06/03 07:05:46;;;;;;;;;;;;;;;15.71;56.82;96341.94;1711707;84;20134;-65
2021/06/03 07:08:13;;;;;;;;;;;;;;;15.88;54.50;96337.97;1711799;84;20161;-63
2021/06/03 07:10:40;;;;;;;;;;;;;;;16.05;55.86;96348.12;1711737;84;20154;-65
2021/06/03 07:13:06;;;;;;;;;;;;;;;16.16;56.17;96345.58;1692401;85;20401;-67
2021/06/03 07:15:33;;;;;;;;;;;;;;;16.27;52.99;96339.07;1692249;85;20123;-65
2021/06/03 07:17:59;;;;;;;;;;;;;;;16.37;52.92;96340.55;1666823;85;20112;-66
2021/06/03 07:20:25;;;;;;;;;;;;;;;16.45;52.02;96343.84;1692309;85;20194;-64
2021/06/03 07:22:54;;;;;;;;;;;;;;;16.52;53.22;96345.88;1692660;84;20087;-65
2021/06/03 07:25:24;;;;;;;;;;;;;;;16.46;48.04;96343.41;1692092;84;20151;-65
2021/06/03 07:27:51;;;;;;;;;;;;;;;16.46;52.09;96344.74;1692457;85;20444;-65
2021/06/03 07:30:20;;;;;;;;;;;;;;;16.54;50.98;96341.38;1702209;84;20141;-62
2021/06/03 07:32:47;;;;;;;;;;;;;;;16.62;52.29;96342.88;1756967;82;20098;-63
2021/06/03 07:35:15;;;;;;;;;;;;;;;16.64;51.19;96339.72;1757279;82;20428;-63
2021/06/03 07:37:43;;;;;;;;;;;;;;;16.73;51.33;96334.58;1755504;82;20111;-66
2021/06/03 07:40:12;;;;;;;;;;;;;;;16.80;50.02;96335.28;1704184;83;20122;-66
2021/06/03 07:42:39;;;;;;;;;;;;;;;16.94;51.37;96337.53;1705936;84;20098;-64
2021/06/03 07:45:08;;;;;;;;;;;;;;;17.03;50.52;96338.55;1702591;83;20138;-66
2021/06/03 07:47:35;;;;;;;;;;;;;;;17.06;48.59;96331.80;1699933;84;20106;-69
2021/06/03 07:50:03;;;;;;;;;;;;;;;17.16;48.17;96334.58;1699977;84;20412;-65
2021/06/03 07:52:30;;;;;;;;;;;;;;;17.22;48.98;96342.36;1724270;83;20101;-65
2021/06/03 07:54:56;;;;;;;;;;;;;;;17.00;48.23;96346.18;1700000;84;20123;-64
2021/06/03 07:57:22;;;;;;;;;;;;;;;16.69;47.05;96346.24;1693524;85;20162;-65
2021/06/03 07:59:49;;;;;;;;;;;;;;;16.75;46.99;96344.70;1693526;85;20299;-63
2021/06/03 08:02:15;;;;;;;;;;;;;;;16.81;47.08;96341.04;1692901;85;20169;-64
2021/06/03 08:04:41;;;;;;;;;;;;;;;16.84;47.05;96336.94;1693565;85;20198;-65
2021/06/03 08:07:08;;;;;;;;;;;;;;;16.93;45.16;96334.42;1693591;85;20155;-63
2021/06/03 08:09:34;;;;;;;;;;;;;;;17.14;48.62;96338.22;1693754;85;20167;-63
2021/06/03 08:12:01;;;;;;;;;;;;;;;17.37;45.80;96340.98;1693724;85;20142;-62
2021/06/03 08:14:27;;;;;;;;;;;;;;;17.50;44.58;96332.11;1693389;85;20428;-65
2021/06/03 08:16:54;;;;;;;;;;;;;;;17.65;45.88;96332.05;1693362;85;20135;-64
2021/06/03 08:19:20;;;;;;;;;;;;;;;17.62;44.75;96337.03;1693623;85;20215;-64
2021/06/03 08:21:48;;;;;;;;;;;;;;;17.48;43.58;96336.62;1693477;85;20164;-62
2021/06/03 08:24:14;;;;;;;;;;;;;;;17.25;43.78;96336.92;1693663;85;20437;-62
2021/06/03 08:26:41;;;;;;;;;;;;;;;17.23;44.43;96337.43;1693371;85;20130;-65
2021/06/03 08:29:07;;;;;;;;;;;;;;;17.49;46.45;96343.72;1693114;85;20123;-65
2021/06/03 08:31:34;;;;;;;;;;;;;;;17.82;45.51;96340.84;1693459;85;20150;-66
2021/06/03 08:34:04;;;;;;;;;;;;;;;18.01;44.83;96337.91;1693550;85;20146;-65
2021/06/03 08:36:30;;;;;;;;;;;;;;;18.12;42.01;96339.73;1693459;85;20159;-65
2021/06/03 08:38:56;;;;;;;;;;;;;;;18.35;44.10;96338.02;1693711;85;20476;-67
2021/06/03 08:41:24;;;;;;;;;;;;;;;18.55;43.75;96332.79;1693468;85;20138;-68
2021/06/03 08:43:51;;;;;;;;;;;;;;;18.40;42.08;96338.72;1693457;85;20135;-70
2021/06/03 08:46:17;;;;;;;;;;;;;;;18.16;44.05;96348.02;1693365;84;20127;-70
2021/06/03 08:48:46;;;;;;;;;;;;;;;17.89;43.60;96345.91;1693437;85;20203;-69
2021/06/03 08:51:13;;;;;;;;;;;;;;;17.73;44.66;96345.52;1693646;85;20151;-71
2021/06/03 08:53:39;;;;;;;;;;;;;;;17.56;44.54;96346.56;1693520;85;20183;-68
2021/06/03 08:56:15;;;;;;;;;;;;;;;17.45;44.97;96347.40;1693060;85;20433;-71
2021/06/03 08:58:43;;;;;;;;;;;;;;;17.34;44.41;96349.53;1692157;85;20183;-67
2021/06/03 09:01:11;;;;;;;;;;;;;;;17.24;44.73;96349.86;1665099;85;20437;-63
2021/06/03 09:03:38;;;;;;;;;;;;;;;17.16;45.29;96349.25;1692122;85;20305;-64
2021/06/03 09:06:05;;;;;;;;;;;;;;;17.13;44.37;96353.32;1692234;85;20428;-62
2021/06/03 09:08:38;;;;;;;;;;;;;;;17.16;45.14;96355.02;1692074;85;20139;-60
2021/06/03 09:11:08;;;;;;;;;;;;;;;17.24;45.62;96359.66;1692109;85;20436;-61
2021/06/03 09:13:37;;;;;;;;;;;;;;;17.38;44.27;96357.39;1692399;85;20163;-60
2021/06/03 09:16:12;;;;;;;;;;;;;;;17.53;45.54;96347.53;1692216;85;20211;-60
2021/06/03 09:18:44;;;;;;;;;;;;;;;17.69;47.58;96349.24;1692176;85;20124;-60
2021/06/03 09:21:17;;;;;;;;;;;;;;;17.86;46.23;96352.66;1691983;85;20123;-60
2021/06/03 09:23:55;;;;;;;;;;;;;;;18.05;46.68;96352.90;1692355;85;20210;-60
2021/06/03 09:26:18;;;;;;;;;;;;;;;18.24;45.48;96349.08;1691810;85;20171;-60
2021/06/03 09:28:47;;;;;;;;;;;;;;;18.32;45.41;96351.47;1692372;85;20131;-62
2021/06/03 09:31:22;;;;;;;;;;;;;;;18.40;44.61;96351.22;1691221;85;20198;-61
2021/06/03 09:33:57;;;;;;;;;;;;;;;18.41;43.27;96346.27;1691134;85;20270;-62
2021/06/03 09:36:36;;;;;;;;;;;;;;;18.55;44.52;96352.84;1691079;85;20266;-62
2021/06/03 09:39:12;;;;;;;;;;;;;;;18.65;45.71;96350.69;1691330;85;20135;-61
2021/06/03 09:42:05;;;;;;;;;;;;;;;18.83;43.74;96353.14;1691975;85;20210;-61
2021/06/03 09:44:35;;;;;;;;;;;;;;;19.34;42.58;96354.65;1690653;85;20457;-61
2021/06/03 09:47:05;;;;;;;;;;;;;;;19.62;43.60;96350.35;1677988;86;20190;-61
2021/06/03 09:49:39;;;;;;;;;;;;;;;19.68;42.32;96353.30;1678618;86;20167;-61
2021/06/03 09:52:14;;;;;;;;;;;;;;;19.73;40.78;96346.38;1678570;86;20124;-61
2021/06/03 09:54:44;;;;;;;;;;;;;;;19.59;40.05;96346.47;1653238;86;20171;-61
2021/06/03 09:57:11;;;;;;;;;;;;;;;19.65;42.57;96354.27;1679893;85;20151;-61
2021/06/03 09:59:43;;;;;;;;;;;;;;;19.61;42.97;96356.66;1679872;85;20457;-62
2021/06/03 10:02:14;;;;;;;;;;;;;;;19.37;41.39;96351.84;1679861;85;20156;-61
2021/06/03 10:04:48;;;;;;;;;;;;;;;19.38;43.28;96352.27;1679989;85;20457;-61
2021/06/03 10:07:29;;;;;;;;;;;;;;;19.22;40.78;96352.00;1679870;85;20139;-61
2021/06/03 10:09:58;;;;;;;;;;;;;;;19.03;42.17;96354.56;1679836;85;20135;-60
2021/06/03 10:12:30;;;;;;;;;;;;;;;18.89;44.27;96356.90;1679739;85;20123;-61
2021/06/03 10:15:06;;;;;;;;;;;;;;;18.81;43.86;96353.66;1680014;85;20461;-60
2021/06/03 10:17:40;;;;;;;;;;;;;;;18.82;43.63;96355.39;1679841;85;20148;-61
2021/06/03 10:20:12;;;;;;;;;;;;;;;18.85;43.61;96353.06;1680038;85;20135;-61
2021/06/03 10:22:42;;;;;;;;;;;;;;;18.95;44.67;96355.34;1679622;85;20120;-61
2021/06/03 10:25:15;;;;;;;;;;;;;;;19.02;45.93;96355.94;1680051;85;20465;-61
2021/06/03 10:27:48;;;;;;;;;;;;;;;19.04;45.51;96354.09;1680016;85;20138;-61
2021/06/03 10:30:18;;;;;;;;;;;;;;;19.13;44.40;96354.20;1679421;85;20135;-61
2021/06/03 10:32:48;;;;;;;;;;;;;;;19.11;44.32;96354.25;1679835;85;20128;-62
2021/06/03 10:35:19;;;;;;;;;;;;;;;19.28;43.92;96360.27;1680082;85;20429;-62
2021/06/03 10:37:46;;;;;;;;;;;;;;;19.41;44.02;96354.80;1679263;85;20128;-61
2021/06/03 10:40:15;;;;;;;;;;;;;;;19.57;42.70;96352.35;1679923;85;20139;-62
2021/06/03 10:42:42;;;;;;;;;;;;;;;19.74;43.14;96350.81;1679863;85;20175;-62
2021/06/03 10:45:11;;;;;;;;;;;;;;;19.70;40.53;96359.91;1684939;84;20110;-61
2021/06/03 10:47:38;;;;;;;;;;;;;;;19.52;40.88;96358.84;1700360;84;20115;-62
2021/06/03 10:50:07;;;;;;;;;;;;;;;19.57;41.45;96352.83;1700387;84;20134;-61
2021/06/03 10:52:34;;;;;;;;;;;;;;;19.78;43.46;96356.42;1700579;84;20412;-61
2021/06/03 10:55:00;;;;;;;;;;;;;;;20.36;44.30;96346.29;1700296;84;20132;-61
2021/06/03 10:57:49;;;;;;;;;;;;;;;20.53;43.00;96348.59;1693291;85;20115;-61
2021/06/03 11:00:24;;;;;;;;;;;;;;;20.58;42.23;96343.06;1693596;85;20434;-62
2021/06/03 11:02:57;;;;;;;;;;;;;;;20.60;41.18;96345.20;1693071;85;20166;-61
2021/06/03 11:05:27;;;;;;;;;;;;;;;20.71;42.07;96337.99;1692151;85;20124;-61
2021/06/03 11:07:54;;;;;;;;;;;;;;;20.75;42.98;96347.65;1693113;85;20135;-61
2021/06/03 11:10:30;;;;;;;;;;;;;;;21.07;40.60;96341.23;1693361;85;20162;-61
2021/06/03 11:13:17;;;;;;;;;;;;;;;21.00;37.32;96337.11;1693646;85;20126;-62
2021/06/03 11:16:03;;;;;;;;;;;;;;;20.86;37.30;96341.30;1693404;85;20163;-61
2021/06/03 11:18:49;;;;;;;;;;;;;;;20.71;37.75;96342.91;1693042;85;20163;-61
2021/06/03 11:21:37;;;;;;;;;;;;;;;20.63;36.86;96337.48;1693320;85;20428;-61
2021/06/03 11:24:13;;;;;;;;;;;;;;;20.59;40.72;96345.27;1693369;85;20123;-61
2021/06/03 11:26:43;;;;;;;;;;;;;;;21.06;38.28;96340.34;1693447;85;20135;-61
2021/06/03 11:29:27;;;;;;;;;;;;;;;21.49;37.41;96334.72;1693529;85;20110;-61
2021/06/03 11:32:06;;;;;;;;;;;;;;;21.96;37.35;96330.95;1693189;85;20127;-61
2021/06/03 11:34:41;;;;;;;;;;;;;;;22.32;35.43;96324.61;1693438;85;20135;-61
2021/06/03 11:37:14;;;;;;;;;;;;;;;22.55;36.26;96326.05;1693445;85;20172;-61
2021/06/03 11:39:44;;;;;;;;;;;;;;;22.44;33.89;96319.92;1693446;85;20150;-61
2021/06/03 11:42:35;;;;;;;;;;;;;;;22.49;35.95;96321.50;1666040;85;20638;-61
2021/06/03 11:45:11;;;;;;;;;;;;;;;22.52;34.24;96324.02;1692855;84;20178;-61
2021/06/03 11:47:41;;;;;;;;;;;;;;;22.81;35.62;96328.67;1693135;85;20139;-61
2021/06/03 11:50:20;;;;;;;;;;;;;;;22.95;32.66;96323.86;1718546;84;20395;-61
2021/06/03 11:53:06;;;;;;;;;;;;;;;22.59;32.37;96320.05;1688045;85;20137;-61
2021/06/03 11:55:43;;;;;;;;;;;;;;;22.11;34.58;96325.25;1681649;85;20396;-61
2021/06/03 11:58:25;;;;;;;;;;;;;;;21.74;35.41;96321.78;1650711;86;20115;-61
2021/06/03 12:01:13;;;;;;;;;;;;;;;21.50;36.35;96324.39;1661905;86;20143;-61
2021/06/03 12:03:42;;;;;;;;;;;;;;;21.33;38.06;96328.73;1659282;86;20116;-61
2021/06/03 12:06:18;;;;;;;;;;;;;;;21.24;36.67;96323.81;1662385;86;20104;-61
2021/06/03 12:08:51;;;;;;;;;;;;;;;21.16;37.66;96324.67;1658912;86;20426;-61
2021/06/03 12:11:25;;;;;;;;;;;;;;;21.25;37.95;96330.94;1662424;86;20111;-61
2021/06/03 12:14:12;;;;;;;;;;;;;;;21.43;38.53;96321.61;1662307;86;20116;-61
2021/06/03 12:16:41;;;;;;;;;;;;;;;21.54;37.95;96325.95;1662251;86;20116;-61
2021/06/03 12:19:10;;;;;;;;;;;;;;;21.55;37.00;96321.00;1662284;86;20111;-61
2021/06/03 12:21:37;;;;;;;;;;;;;;;21.65;36.75;96322.75;1661852;86;20378;-61
2021/06/03 12:24:05;;;;;;;;;;;;;;;21.80;36.62;96329.55;1686706;85;20095;-61
2021/06/03 12:26:35;;;;;;;;;;;;;;;21.98;36.31;96321.00;1660706;85;20152;-61
2021/06/03 12:29:01;;;;;;;;;;;;;;;22.65;35.16;96316.56;1662272;86;20440;-61
2021/06/03 12:31:28;;;;;;;;;;;;;;;23.41;36.44;96315.90;1662635;86;20116;-61
2021/06/03 12:33:56;;;;;;;;;;;;;;;23.83;33.01;96318.38;1662093;86;20104;-62
2021/06/03 12:36:25;;;;;;;;;;;;;;;24.47;33.92;96313.63;1662326;86;20413;-61
2021/06/03 12:38:55;;;;;;;;;;;;;;;25.28;32.76;96306.72;1662383;86;20112;-61
2021/06/03 12:41:34;;;;;;;;;;;;;;;25.50;28.96;96307.00;1662476;86;20148;-61
2021/06/03 12:44:04;;;;;;;;;;;;;;;25.25;28.79;96302.39;1661443;86;20175;-61
2021/06/03 12:46:42;;;;;;;;;;;;;;;24.83;29.64;96310.42;1688255;84;20137;-61
2021/06/03 12:49:24;;;;;;;;;;;;;;;24.28;30.42;96315.20;1707766;84;20109;-61
2021/06/03 12:52:03;;;;;;;;;;;;;;;23.92;32.27;96319.19;1707550;84;20133;-62
2021/06/03 12:54:36;;;;;;;;;;;;;;;23.85;32.33;96316.95;1694435;84;20101;-62
2021/06/03 12:57:09;;;;;;;;;;;;;;;23.63;32.59;96318.18;1697105;84;20167;-61
2021/06/03 12:59:39;;;;;;;;;;;;;;;23.36;34.29;96324.73;1694861;85;20143;-61
2021/06/03 13:02:14;;;;;;;;;;;;;;;23.00;37.25;96327.67;1695543;85;20156;-62
2021/06/03 13:04:43;;;;;;;;;;;;;;;22.85;35.57;96324.84;1695429;85;20171;-61